Terminal Aerodrome Forecast
Issued by NWS

Home | Current Version | Previous Version | Text Only | Print | Product List | Glossary On
Versions: 1 2 3 4 5 6 7 8 9 10 11 12 13 14
000
FTUS42 TJSJ 272300
TAFJMZ
TAF
TJMZ 272330Z 2800/2824 06006KT P6SM FEW035
     FM281630 25008KT P6SM VCSH SCT025 BKN040
     FM282300 07004KT P6SM SCT040
      AMD NOT SKED TIL 281600=

USA.gov is the U.S. government's official web portal to all federal, state and local government web resources and services.